Terminal Aerodrome Forecast
Issued by NWS Boston, MA

Home | Current Version | Previous Version | Text Only | Print | Product List | Glossary On
Versions: 1 2 3 4 5 6 7 8 9 10 11 12 13 14 15 16 17 18 19 20 21 22 23 24 25 26 27 28 29 30 31 32 33 34 35 36 37 38 39 40 41 42 43
000
FTUS41 KBOX 240542 AAA
TAFBOS
TAF AMD
KBOS 240542Z 2406/2512 35005KT P6SM OVC080
     FM240800 04006KT 5SM BR OVC030
     FM241000 04007KT 3SM BR VCSH OVC008
     FM241600 05007KT P6SM VCSH OVC010
     FM241800 05007KT P6SM OVC015
     FM242300 VRB03KT P6SM OVC040
     FM250800 24006KT 3SM BR BKN200
     FM251100 25006KT P6SM SCT250=

USA.gov is the U.S. government's official web portal to all federal, state and local government web resources and services.